Mc Cook Ben Nelson Regional Airport
KMCK : now visible

Airfield :











YOU CAN JOIN US ON...

 
LOGIN :

Register | Disclaimer

   EN    FR    IT 

 









Legend :    VFR   Marginal VFR   IFR   Intensive IFR   Very Intensive IFR
Visi :
Ceiling :
>= 8 km
>= 3000ft
5 to 8 km
1000 to 3000 ft
1500m to 5 km
500 to 1000 ft
800 to 1500m
200 to 500 ft
< 800m
< 200 ft
Symbols :   Thunderstorms  Fog  Heavy snow  Heavy precipitations  Wind > 20 kt






- Airport Elevation : 2583 ft


KMCK - Mc Cook Ben Nelson Regional

CURRENT METAR :
  • 270453Z AUTO 25006KT 10SM CLR M03/M07 A3016 RMK AO2 SLP245 T10281067

EXPIRED METARs :
  • 270353Z AUTO 25010KT 10SM OVC060 M01/M06 A3017 RMK AO2 SLP247 T10061061
  • 270253Z AUTO 23010KT 10SM OVC070 M01/M07 A3016 RMK AO2 SLP248 T10111067 58016

TAF KMCK
Valid from the 27 at 00:00 until the 28 at 00:00 UTC


262320Z 2700/2724 19006KT P6SM SCT140
FM270900 27009KT P6SM BKN250
FM271600 30016G24KT P6SM BKN050
FM272000 33023G31KT P6SM SCT070



MET'MAP, your aeronautical weather chart ! - Copyright ORBIFLY December 2007 - Disclaimer

ORBIFLY MET'MAP TEAM :

Programming & Development : Alexandra Zaïnal
Concept & original design : Baudouin d'Aumeries
Assistance for programming : Marc-Olivier Méhu
Technical & hardware support : Manuel Goepfert

Contact : metmap@orbifly.com




SOURCES & CREDITS :

   NOAA       Earth
Advisory